createdAt,value
2022-12-18T00:00:11.042Z,95936.94
2022-12-18T00:02:39.472Z,95951.34
2022-12-18T00:05:09.474Z,95938.28
2022-12-18T00:07:38.180Z,95945.69
2022-12-18T00:10:07.754Z,95959.50
2022-12-18T00:12:36.031Z,95952.59
2022-12-18T00:15:06.702Z,95964.63
2022-12-18T00:17:34.908Z,95943.59
2022-12-18T00:20:03.162Z,95965.16
2022-12-18T00:22:31.409Z,95962.19
2022-12-18T00:24:59.657Z,95945.00
2022-12-18T00:27:28.017Z,95884.88
2022-12-18T00:29:56.371Z,95974.38
2022-12-18T00:32:25.914Z,95980.97
2022-12-18T00:34:54.248Z,96001.41
2022-12-18T00:37:22.989Z,95998.81
2022-12-18T00:39:51.695Z,96002.47
2022-12-18T00:42:36.411Z,95979.19
2022-12-18T00:45:10.658Z,95982.13
2022-12-18T00:47:42.334Z,95978.16
2022-12-18T00:50:11.721Z,95982.69
2022-12-18T00:52:42.225Z,95990.94
2022-12-18T00:55:11.153Z,95973.34
2022-12-18T00:57:39.642Z,95988.56
2022-12-18T01:00:11.069Z,95982.69
2022-12-18T01:02:39.532Z,95980.81
2022-12-18T01:05:10.375Z,95978.66
2022-12-18T01:07:38.789Z,95979.50
2022-12-18T01:10:08.704Z,95971.28
2022-12-18T01:12:37.225Z,95963.56
2022-12-18T01:15:06.962Z,95968.06
2022-12-18T01:17:36.132Z,95975.16
2022-12-18T01:20:04.997Z,95983.72
2022-12-18T01:22:34.623Z,95977.94
2022-12-18T01:25:03.179Z,95988.19
2022-12-18T01:27:31.886Z,95924.59
2022-12-18T01:30:00.137Z,95983.88
2022-12-18T01:32:28.438Z,95981.56
2022-12-18T01:34:56.675Z,95957.38
2022-12-18T01:37:25.456Z,95973.59
2022-12-18T01:39:56.732Z,95969.88
2022-12-18T01:42:26.646Z,95897.53
2022-12-18T01:45:04.156Z,95970.19
2022-12-18T01:47:37.176Z,95950.25
2022-12-18T01:50:10.398Z,95919.44
2022-12-18T01:52:39.623Z,95967.03
2022-12-18T01:55:11.447Z,95971.00
2022-12-18T01:57:41.459Z,95967.53
2022-12-18T02:00:13.201Z,95974.16
2022-12-18T02:02:42.505Z,95985.00
2022-12-18T02:05:12.555Z,95989.41
2022-12-18T02:07:47.325Z,96005.25
2022-12-18T02:10:25.298Z,95807.09
2022-12-18T02:13:01.938Z,95989.19
2022-12-18T02:15:37.614Z,95943.53
2022-12-18T02:18:11.273Z,95986.53
2022-12-18T02:20:45.840Z,95956.53
2022-12-18T02:23:26.653Z,95989.72
2022-12-18T02:26:12.849Z,95993.31
2022-12-18T02:28:45.973Z,95990.72
2022-12-18T02:31:18.786Z,96004.25
2022-12-18T02:33:48.413Z,96012.38
2022-12-18T02:36:20.405Z,95972.19
2022-12-18T02:38:50.069Z,95952.44
2022-12-18T02:41:21.112Z,96005.91
2022-12-18T02:43:51.823Z,96013.88
2022-12-18T02:46:39.425Z,95942.78
2022-12-18T02:49:19.970Z,96004.09
2022-12-18T02:51:55.157Z,95937.53
2022-12-18T02:54:46.240Z,95987.25
2022-12-18T02:57:23.409Z,95906.47
2022-12-18T02:59:58.782Z,96026.69
2022-12-18T03:02:32.823Z,96020.13
2022-12-18T03:05:07.304Z,96041.97
2022-12-18T03:07:40.468Z,96031.69
2022-12-18T03:10:12.028Z,96038.81
2022-12-18T03:12:46.099Z,95985.00
2022-12-18T03:15:19.735Z,95991.00
2022-12-18T03:17:53.246Z,96024.06
2022-12-18T03:20:24.289Z,96025.66
2022-12-18T03:22:59.776Z,96030.22
2022-12-18T03:25:30.174Z,96031.16
2022-12-18T03:28:03.437Z,96034.75
2022-12-18T03:30:33.655Z,96052.72
2022-12-18T03:33:08.189Z,96038.72
2022-12-18T03:35:40.150Z,96048.81
2022-12-18T03:38:08.982Z,96049.47
2022-12-18T03:40:46.259Z,96002.47
2022-12-18T03:43:23.211Z,96040.63
2022-12-18T03:45:56.944Z,96045.59
2022-12-18T03:48:32.014Z,96054.31
2022-12-18T03:51:04.404Z,96067.91
2022-12-18T03:53:42.933Z,96070.78
2022-12-18T03:56:13.677Z,96073.38
2022-12-18T03:58:45.725Z,96070.00
2022-12-18T04:01:17.958Z,96076.03
2022-12-18T04:03:48.810Z,96074.69
2022-12-18T04:06:18.872Z,96074.69
2022-12-18T04:08:48.177Z,96080.25
2022-12-18T04:11:17.179Z,96074.13
2022-12-18T04:13:46.912Z,96073.00
2022-12-18T04:16:15.152Z,96072.63
2022-12-18T04:18:43.483Z,96073.94
2022-12-18T04:21:12.902Z,96067.81
2022-12-18T04:23:41.603Z,96054.03
2022-12-18T04:26:10.097Z,95920.53
2022-12-18T04:28:38.426Z,96079.47
2022-12-18T04:31:08.261Z,96077.72
2022-12-18T04:33:36.797Z,96084.03
2022-12-18T04:36:05.864Z,96086.84
2022-12-18T04:38:34.165Z,96080.84
2022-12-18T04:41:02.359Z,96088.47
2022-12-18T04:43:30.613Z,96082.38
2022-12-18T04:46:04.705Z,96069.50
2022-12-18T04:48:34.615Z,96086.75
2022-12-18T04:51:04.716Z,96076.66
2022-12-18T04:53:34.198Z,96040.84
2022-12-18T04:56:07.510Z,96083.47
2022-12-18T04:58:35.905Z,96099.47
2022-12-18T05:01:05.906Z,96108.97
2022-12-18T05:03:36.221Z,96118.16
2022-12-18T05:06:05.250Z,96100.69
2022-12-18T05:08:33.774Z,96109.81
2022-12-18T05:11:02.477Z,96029.50
2022-12-18T05:13:31.264Z,95986.75
2022-12-18T05:15:59.873Z,96119.59
2022-12-18T05:18:28.668Z,96134.25
2022-12-18T05:20:58.774Z,96131.72
2022-12-18T05:23:27.397Z,96133.16
2022-12-18T05:25:56.804Z,96138.78
2022-12-18T05:28:26.766Z,96140.06
2022-12-18T05:30:57.105Z,96139.50
2022-12-18T05:33:27.483Z,96140.31
2022-12-18T05:35:58.766Z,96147.44
2022-12-18T05:38:28.570Z,96133.72
2022-12-18T05:40:57.440Z,96145.53
2022-12-18T05:43:26.243Z,96147.63
2022-12-18T05:45:54.984Z,96152.81
2022-12-18T05:48:23.754Z,96163.84
2022-12-18T05:50:52.937Z,96156.94
2022-12-18T05:53:23.020Z,96152.91
2022-12-18T05:55:51.330Z,95993.94
2022-12-18T05:58:19.610Z,96159.88
2022-12-18T06:00:57.270Z,96162.75
2022-12-18T06:03:32.211Z,96161.28
2022-12-18T06:06:02.173Z,96143.38
2022-12-18T06:08:32.171Z,96156.78
2022-12-18T06:11:00.342Z,96174.75
2022-12-18T06:13:28.611Z,96178.38
2022-12-18T06:15:56.887Z,96146.59
2022-12-18T06:18:25.154Z,96192.53
2022-12-18T06:20:58.225Z,96191.41
2022-12-18T06:23:26.718Z,96186.31
2022-12-18T06:25:56.686Z,96194.06
2022-12-18T06:28:25.260Z,96185.72
2022-12-18T06:30:54.120Z,96196.72
2022-12-18T06:33:22.409Z,96203.91
2022-12-18T06:35:50.729Z,96204.91
2022-12-18T06:38:19.034Z,96155.81
2022-12-18T06:40:47.296Z,96210.41
2022-12-18T06:43:16.991Z,96212.06
2022-12-18T06:45:45.301Z,96171.34
2022-12-18T06:48:13.478Z,96227.00
2022-12-18T06:50:44.678Z,96229.34
2022-12-18T06:53:13.029Z,96224.50
2022-12-18T06:55:41.199Z,96219.09
2022-12-18T06:58:09.950Z,96233.50
2022-12-18T07:00:41.307Z,96189.75
2022-12-18T07:03:09.659Z,96237.63
2022-12-18T07:05:42.241Z,96245.72
2022-12-18T07:08:10.561Z,96242.78
2022-12-18T07:10:46.975Z,96236.97
2022-12-18T07:13:17.343Z,96243.16
2022-12-18T07:15:47.078Z,96242.97
2022-12-18T07:18:15.335Z,96232.34
2022-12-18T07:20:43.635Z,96234.69
2022-12-18T07:23:11.887Z,96231.03
2022-12-18T07:25:40.833Z,96188.66
2022-12-18T07:28:14.152Z,96221.50
2022-12-18T07:30:46.812Z,96240.75
2022-12-18T07:33:15.880Z,96239.41
2022-12-18T07:35:44.105Z,96238.69
2022-12-18T07:38:12.395Z,96245.69
2022-12-18T07:40:40.631Z,96234.28
2022-12-18T07:43:08.958Z,96246.84
2022-12-18T07:45:37.636Z,96251.69
2022-12-18T07:48:07.544Z,96239.69
2022-12-18T07:50:35.899Z,96245.53
2022-12-18T07:53:05.942Z,96242.06
2022-12-18T07:55:54.790Z,96241.78
2022-12-18T07:58:22.739Z,96238.56
2022-12-18T08:00:51.076Z,96243.09
2022-12-18T08:03:20.965Z,96250.00
2022-12-18T08:05:50.794Z,96250.50
2022-12-18T08:08:19.073Z,96251.50
2022-12-18T08:10:48.380Z,96183.81
2022-12-18T08:13:16.695Z,96239.66
2022-12-18T08:15:44.967Z,96238.88
2022-12-18T08:18:14.515Z,96230.09
2022-12-18T08:20:44.278Z,96237.66
2022-12-18T08:23:12.636Z,96234.13
2022-12-18T08:25:40.798Z,96239.78
2022-12-18T08:28:09.123Z,96236.75
2022-12-18T08:30:38.138Z,96239.56
2022-12-18T08:33:08.791Z,96239.16
2022-12-18T08:35:44.094Z,96245.75
2022-12-18T08:38:15.334Z,96250.22
2022-12-18T08:40:43.662Z,96208.03
2022-12-18T08:43:30.101Z,96242.50
2022-12-18T08:45:58.441Z,96236.31
2022-12-18T08:48:26.720Z,96229.31
2022-12-18T08:50:58.080Z,96242.97
2022-12-18T08:53:34.059Z,96238.88
2022-12-18T08:56:04.207Z,96247.56
2022-12-18T08:58:32.623Z,96253.16
2022-12-18T09:01:03.196Z,96198.53
2022-12-18T09:03:31.717Z,96247.59
2022-12-18T09:06:00.662Z,96249.63
2022-12-18T09:08:30.489Z,96250.91
2022-12-18T09:10:59.095Z,96241.94
2022-12-18T09:13:27.529Z,96222.09
2022-12-18T09:15:56.914Z,96230.19
2022-12-18T09:18:26.634Z,96238.88
2022-12-18T09:20:54.929Z,96242.09
2022-12-18T09:23:23.935Z,96238.91
2022-12-18T09:25:53.585Z,96239.50
2022-12-18T09:28:21.953Z,96250.75
2022-12-18T09:30:51.672Z,96239.91
2022-12-18T09:33:20.046Z,96233.81
2022-12-18T09:35:48.774Z,96228.00
2022-12-18T09:38:18.973Z,96248.81
2022-12-18T09:40:50.518Z,96246.91
2022-12-18T09:43:23.908Z,96247.81
2022-12-18T09:45:56.099Z,96248.97
2022-12-18T09:48:28.588Z,96237.56
2022-12-18T09:51:00.286Z,96243.69
2022-12-18T09:53:33.040Z,96245.22
2022-12-18T09:56:04.231Z,96246.72
2022-12-18T09:58:38.575Z,96244.69
2022-12-18T10:01:12.539Z,96237.25
2022-12-18T10:03:40.951Z,96248.00
2022-12-18T10:06:16.245Z,96234.94
2022-12-18T10:08:51.934Z,96238.19
2022-12-18T10:11:34.662Z,96236.38
2022-12-18T10:14:12.151Z,96235.06
2022-12-18T10:16:48.201Z,96234.06
2022-12-18T10:19:29.108Z,96235.84
2022-12-18T10:22:07.302Z,96225.13
2022-12-18T10:24:42.825Z,96225.66
2022-12-18T10:27:16.947Z,96224.06
2022-12-18T10:29:47.893Z,96228.69
2022-12-18T10:32:19.343Z,96224.50
2022-12-18T10:34:48.962Z,96217.81
2022-12-18T10:37:20.665Z,96217.75
2022-12-18T10:39:53.811Z,96216.81
2022-12-18T10:42:22.220Z,96223.28
2022-12-18T10:45:03.456Z,96213.34
2022-12-18T10:47:32.062Z,96216.31
2022-12-18T10:50:00.499Z,96224.53
2022-12-18T10:52:30.073Z,96119.50
2022-12-18T10:55:02.726Z,96221.69
2022-12-18T10:57:37.069Z,96220.50
2022-12-18T11:00:26.194Z,96219.75
2022-12-18T11:02:55.026Z,96209.78
2022-12-18T11:05:30.270Z,96215.13
2022-12-18T11:07:59.331Z,96205.31
2022-12-18T11:10:32.891Z,96214.88
2022-12-18T11:13:15.310Z,96217.00
2022-12-18T11:15:45.257Z,96205.88
2022-12-18T11:18:22.004Z,96140.19
2022-12-18T11:20:58.460Z,96143.25
2022-12-18T11:23:28.246Z,96200.25
2022-12-18T11:25:59.674Z,96209.59
2022-12-18T11:28:37.504Z,96197.97
2022-12-18T11:31:23.795Z,96193.09
2022-12-18T11:36:55.691Z,96199.28
2022-12-18T11:39:33.867Z,96126.34
2022-12-18T11:42:13.862Z,96196.06
2022-12-18T11:44:49.298Z,96196.78
2022-12-18T11:47:30.796Z,96126.97
2022-12-18T11:50:03.266Z,96195.13
2022-12-18T11:52:38.184Z,96186.06
2022-12-18T11:55:13.723Z,96194.59
2022-12-18T11:57:52.332Z,96182.78
2022-12-18T12:00:22.167Z,96187.66
2022-12-18T12:03:42.683Z,96176.06
2022-12-18T12:06:22.548Z,96172.59
2022-12-18T12:09:05.100Z,96187.16
2022-12-18T12:11:42.121Z,96185.47
2022-12-18T12:14:32.380Z,96185.03
2022-12-18T12:17:11.737Z,96185.41
2022-12-18T12:19:51.590Z,96191.72
2022-12-18T12:22:31.906Z,96178.34
2022-12-18T12:25:12.683Z,96190.69
2022-12-18T12:27:49.956Z,96186.69
2022-12-18T12:30:23.122Z,96192.88
2022-12-18T12:33:09.505Z,96185.28
2022-12-18T12:35:49.310Z,96183.25
2022-12-18T12:38:24.819Z,96176.97
2022-12-18T12:41:03.181Z,96177.34
2022-12-18T12:43:46.077Z,96188.13
2022-12-18T12:46:20.192Z,96125.94
2022-12-18T12:48:52.074Z,96184.38
2022-12-18T12:51:24.651Z,96146.97
2022-12-18T12:53:55.563Z,96193.28
2022-12-18T12:56:25.432Z,96199.72
2022-12-18T12:59:03.705Z,96189.66
2022-12-18T13:01:42.356Z,96196.03
2022-12-18T13:04:24.093Z,96194.16
2022-12-18T13:07:02.410Z,96198.44
2022-12-18T13:09:34.414Z,96209.13
2022-12-18T13:12:24.495Z,96203.16
2022-12-18T13:14:52.777Z,96207.91
2022-12-18T13:17:32.145Z,96216.06
2022-12-18T13:20:13.358Z,96214.81
2022-12-18T13:22:47.358Z,96203.19
2022-12-18T13:25:38.642Z,96191.59
2022-12-18T13:28:10.657Z,96210.91
2022-12-18T13:30:53.729Z,96197.34
2022-12-18T13:34:16.577Z,96213.34
2022-12-18T13:36:34.579Z,96215.50
2022-12-18T13:39:37.477Z,96213.03
2022-12-18T13:42:56.484Z,96225.09
2022-12-18T13:45:46.133Z,96216.59
2022-12-18T13:48:21.373Z,96216.16
2022-12-18T13:50:57.290Z,96218.66
2022-12-18T13:53:29.817Z,96215.59
2022-12-18T13:56:00.512Z,96225.91
2022-12-18T13:58:28.973Z,96222.91
2022-12-18T14:00:57.817Z,96231.06
2022-12-18T14:03:28.430Z,96228.25
2022-12-18T14:06:01.716Z,96239.97
2022-12-18T14:08:35.436Z,96238.59
2022-12-18T14:11:06.861Z,96236.31
2022-12-18T14:13:39.586Z,96249.16
2022-12-18T14:16:10.075Z,96244.38
2022-12-18T14:18:46.162Z,96242.22
2022-12-18T14:21:24.303Z,96231.34
2022-12-18T14:24:05.974Z,96248.97
2022-12-18T14:26:35.813Z,96247.09
2022-12-18T14:29:21.626Z,96253.78
2022-12-18T14:32:17.555Z,96276.47
2022-12-18T14:34:47.043Z,96251.13
2022-12-18T14:37:17.153Z,96214.09
2022-12-18T14:39:57.679Z,96232.44
2022-12-18T14:42:29.464Z,96287.34
2022-12-18T14:45:41.589Z,96288.94
2022-12-18T14:48:16.310Z,96281.97
2022-12-18T14:50:59.091Z,96253.34
2022-12-18T14:53:35.838Z,96301.47
2022-12-18T14:56:05.978Z,96290.75
2022-12-18T14:58:36.524Z,96292.56
2022-12-18T15:01:04.849Z,96284.94
2022-12-18T15:03:34.174Z,96296.94
2022-12-18T15:06:18.311Z,96288.88
2022-12-18T15:08:46.772Z,96294.28
2022-12-18T15:11:36.960Z,96294.69
2022-12-18T15:14:34.253Z,96301.09
2022-12-18T15:17:04.072Z,96304.84
2022-12-18T15:19:39.012Z,96308.47
2022-12-18T15:22:17.716Z,96308.97
2022-12-18T15:24:46.099Z,96256.00
2022-12-18T15:27:28.318Z,96303.00
2022-12-18T15:30:19.185Z,96305.63
2022-12-18T15:32:48.281Z,96311.97
2022-12-18T15:35:19.135Z,96286.03
2022-12-18T15:37:47.990Z,96320.06
2022-12-18T15:40:17.559Z,96308.81
2022-12-18T15:43:03.999Z,96259.38
2022-12-18T15:45:33.674Z,96262.06
2022-12-18T15:48:02.216Z,96325.84
2022-12-18T15:50:33.632Z,96327.09
2022-12-18T15:53:02.028Z,96325.53
2022-12-18T15:55:47.470Z,96314.09
2022-12-18T15:58:16.543Z,96325.31
2022-12-18T16:00:46.266Z,96322.28
2022-12-18T16:03:16.962Z,96316.97
2022-12-18T16:05:45.365Z,96322.41
2022-12-18T16:08:13.694Z,96320.25
2022-12-18T16:10:42.077Z,96211.41
2022-12-18T16:13:12.369Z,96328.03
2022-12-18T16:15:40.699Z,96334.66
2022-12-18T16:18:10.443Z,96275.09
2022-12-18T16:20:40.434Z,96341.81
2022-12-18T16:23:08.867Z,96328.03
2022-12-18T16:25:37.119Z,96345.19
2022-12-18T16:28:05.473Z,96184.44
2022-12-18T16:30:38.226Z,96264.00
2022-12-18T16:33:13.035Z,96350.72
2022-12-18T16:35:41.442Z,96327.84
2022-12-18T16:38:10.852Z,96333.16
2022-12-18T16:41:01.107Z,96354.66
2022-12-18T16:43:29.361Z,96168.53
2022-12-18T16:45:59.640Z,96303.38
2022-12-18T16:48:29.335Z,96356.72
2022-12-18T16:51:03.789Z,96356.59
2022-12-18T16:53:34.490Z,96340.75
2022-12-18T16:56:03.312Z,96286.91
2022-12-18T16:58:32.743Z,96353.78
2022-12-18T17:01:01.122Z,96370.75
2022-12-18T17:03:30.942Z,96375.81
2022-12-18T17:06:04.378Z,96386.69
2022-12-18T17:08:32.829Z,96376.78
2022-12-18T17:11:05.985Z,96370.72
2022-12-18T17:13:34.244Z,96377.53
2022-12-18T17:16:05.245Z,96378.34
2022-12-18T17:18:35.720Z,96391.97
2022-12-18T17:21:05.040Z,96379.00
2022-12-18T17:23:33.204Z,96365.97
2022-12-18T17:26:02.063Z,96370.38
2022-12-18T17:28:30.549Z,96364.72
2022-12-18T17:30:58.996Z,96375.66
2022-12-18T17:33:27.340Z,96323.72
2022-12-18T17:35:59.991Z,96193.72
2022-12-18T17:38:28.245Z,96331.84
2022-12-18T17:40:56.522Z,96388.81
2022-12-18T17:43:24.781Z,96358.69
2022-12-18T17:45:53.121Z,96409.03
2022-12-18T17:48:21.347Z,96413.78
2022-12-18T17:50:49.675Z,96411.94
2022-12-18T17:53:19.398Z,96396.28
2022-12-18T17:55:56.256Z,96418.84
2022-12-18T17:58:25.241Z,96364.31
2022-12-18T18:00:53.459Z,96399.25
2022-12-18T18:03:22.075Z,96410.91
2022-12-18T18:05:50.613Z,96416.94
2022-12-18T18:08:20.312Z,96413.88
2022-12-18T18:10:49.216Z,96432.69
2022-12-18T18:13:43.334Z,96449.47
2022-12-18T18:16:14.875Z,96440.81
2022-12-18T18:18:43.213Z,96450.41
2022-12-18T18:21:11.457Z,96438.00
2022-12-18T18:23:41.480Z,96456.72
2022-12-18T18:26:11.426Z,96413.81
2022-12-18T18:28:39.890Z,96423.88
2022-12-18T18:31:09.910Z,96451.47
2022-12-18T18:33:38.730Z,96458.97
2022-12-18T18:36:11.712Z,96269.84
2022-12-18T18:38:46.731Z,96449.28
2022-12-18T18:41:18.136Z,96383.34
2022-12-18T18:43:46.547Z,96473.41
2022-12-18T18:46:16.591Z,96472.47
2022-12-18T18:48:44.890Z,96481.44
2022-12-18T18:51:16.544Z,96481.44
2022-12-18T18:53:52.900Z,96478.69
2022-12-18T18:56:56.700Z,96467.97
2022-12-18T18:59:11.970Z,96490.88
2022-12-18T19:01:40.359Z,96498.34
2022-12-18T19:04:08.884Z,96443.19
2022-12-18T19:06:37.149Z,96496.63
2022-12-18T19:09:07.347Z,96503.38
2022-12-18T19:11:53.336Z,96502.78
2022-12-18T19:14:29.019Z,96491.69
2022-12-18T19:16:57.365Z,96518.97
2022-12-18T19:19:27.214Z,96451.31
2022-12-18T19:21:55.571Z,96526.97
2022-12-18T19:24:25.327Z,96530.22
2022-12-18T19:26:55.361Z,96527.56
2022-12-18T19:29:27.046Z,96497.28
2022-12-18T19:31:55.468Z,96542.94
2022-12-18T19:34:23.710Z,96527.56
2022-12-18T19:36:58.001Z,96542.84
2022-12-18T19:39:29.411Z,96552.34
2022-12-18T19:41:58.492Z,96536.66
2022-12-18T19:44:26.928Z,96349.63
2022-12-18T19:46:55.138Z,96557.22
2022-12-18T19:49:23.447Z,96522.19
2022-12-18T19:51:51.799Z,96540.50
2022-12-18T19:54:20.117Z,96557.16
2022-12-18T19:56:50.229Z,96557.97
2022-12-18T19:59:20.422Z,96526.13
2022-12-18T20:01:50.447Z,96504.03
2022-12-18T20:04:18.881Z,96545.34
2022-12-18T20:06:49.666Z,96402.31
2022-12-18T20:09:20.465Z,96556.34
2022-12-18T20:11:51.352Z,96557.81
2022-12-18T20:14:22.321Z,96563.84
2022-12-18T20:16:52.033Z,96571.38
2022-12-18T20:19:20.788Z,96570.00
2022-12-18T20:21:49.469Z,96569.06
2022-12-18T20:24:17.784Z,96576.94
2022-12-18T20:26:46.115Z,96585.38
2022-12-18T20:29:15.842Z,96585.13
2022-12-18T20:31:44.159Z,96586.44
2022-12-18T20:34:12.510Z,96590.84
2022-12-18T20:36:41.195Z,96593.56
2022-12-18T20:39:11.017Z,96606.78
2022-12-18T20:41:40.808Z,96601.13
2022-12-18T20:44:23.056Z,96616.44
2022-12-18T20:46:56.641Z,96609.94
2022-12-18T20:49:27.140Z,96550.06
2022-12-18T20:51:57.373Z,96604.25
2022-12-18T20:54:27.191Z,96429.94
2022-12-18T20:56:55.564Z,96606.25
2022-12-18T20:59:25.796Z,96588.81
2022-12-18T21:01:58.662Z,96608.91
2022-12-18T21:04:27.153Z,96603.28
2022-12-18T21:07:00.797Z,96605.19
2022-12-18T21:09:37.558Z,96609.25
2022-12-18T21:12:25.002Z,96600.88
2022-12-18T21:14:53.381Z,96614.53
2022-12-18T21:17:23.001Z,96611.81
2022-12-18T21:19:51.179Z,96608.91
2022-12-18T21:22:19.849Z,96626.47
2022-12-18T21:24:48.249Z,96618.84
2022-12-18T21:27:17.837Z,96635.25
2022-12-18T21:29:47.255Z,96633.16
2022-12-18T21:32:15.928Z,96631.34
2022-12-18T21:34:48.271Z,96637.38
2022-12-18T21:37:16.767Z,96646.72
2022-12-18T21:39:45.092Z,96642.06
2022-12-18T21:42:30.998Z,96647.06
2022-12-18T21:44:59.277Z,96590.94
2022-12-18T21:47:27.576Z,96635.28
2022-12-18T21:49:57.294Z,96622.66
2022-12-18T21:52:32.282Z,96632.81
2022-12-18T21:55:08.487Z,96639.38
2022-12-18T21:57:37.519Z,96644.63
2022-12-18T22:00:06.848Z,96639.59
2022-12-18T22:02:35.237Z,96634.63
2022-12-18T22:05:05.280Z,96635.19
2022-12-18T22:07:33.602Z,96638.88
2022-12-18T22:10:02.281Z,96645.25
2022-12-18T22:12:43.327Z,96637.13
2022-12-18T22:15:21.026Z,96649.00
2022-12-18T22:17:50.470Z,96625.63
2022-12-18T22:20:20.788Z,96642.31
2022-12-18T22:22:50.649Z,96632.00
2022-12-18T22:25:19.482Z,96630.31
2022-12-18T22:28:08.195Z,96647.97
2022-12-18T22:30:35.523Z,96632.16
2022-12-18T22:33:03.992Z,96641.94
2022-12-18T22:35:33.760Z,96642.44
2022-12-18T22:38:03.029Z,96628.19
2022-12-18T22:40:31.394Z,96555.31
2022-12-18T22:42:59.859Z,96637.25
2022-12-18T22:45:29.196Z,96589.03
2022-12-18T22:47:57.554Z,96641.06
2022-12-18T22:50:28.952Z,96642.53
2022-12-18T22:52:58.651Z,96639.50
2022-12-18T22:55:26.914Z,96634.59
2022-12-18T22:57:55.277Z,96636.47
2022-12-18T23:00:24.809Z,96641.31
2022-12-18T23:02:59.925Z,96628.81
2022-12-18T23:05:30.246Z,96633.88
2022-12-18T23:08:00.653Z,96530.56
2022-12-18T23:10:29.283Z,96641.03
2022-12-18T23:12:57.748Z,96631.44
2022-12-18T23:15:27.678Z,96631.72
2022-12-18T23:17:57.427Z,96628.53
2022-12-18T23:20:26.059Z,96606.81
2022-12-18T23:22:54.385Z,96635.22
2022-12-18T23:25:24.424Z,96640.53
2022-12-18T23:27:52.716Z,96641.34
2022-12-18T23:30:21.109Z,96643.16
2022-12-18T23:32:49.380Z,96643.78
2022-12-18T23:35:18.215Z,96643.53
2022-12-18T23:38:03.942Z,96631.94
2022-12-18T23:40:33.735Z,96640.47
2022-12-18T23:43:01.970Z,96642.63
2022-12-18T23:45:30.324Z,96652.41
2022-12-18T23:47:58.648Z,96652.66
2022-12-18T23:50:29.602Z,96650.56
2022-12-18T23:53:04.812Z,96648.66
2022-12-18T23:55:35.826Z,96645.34
2022-12-18T23:58:04.171Z,96642.72
